sensor_id;sensor_type;location;lat;lon;timestamp;P1;durP1;ratioP1;P2;durP2;ratioP2
61635;SDS011;59438;45.014;39.006;2023-01-15T00:00:00;23.60;;;9.20;;
61635;SDS011;59438;45.014;39.006;2023-01-15T00:02:28;24.08;;;9.50;;
61635;SDS011;59438;45.014;39.006;2023-01-15T00:04:56;20.17;;;8.80;;
61635;SDS011;59438;45.014;39.006;2023-01-15T00:07:22;21.58;;;8.88;;
61635;SDS011;59438;45.014;39.006;2023-01-15T00:09:49;15.98;;;8.02;;
61635;SDS011;59438;45.014;39.006;2023-01-15T00:12:15;24.77;;;8.75;;
61635;SDS011;59438;45.014;39.006;2023-01-15T00:14:41;19.80;;;8.73;;
61635;SDS011;59438;45.014;39.006;2023-01-15T00:17:08;23.25;;;8.77;;
61635;SDS011;59438;45.014;39.006;2023-01-15T00:19:36;18.67;;;8.23;;
61635;SDS011;59438;45.014;39.006;2023-01-15T00:22:02;22.67;;;8.50;;
61635;SDS011;59438;45.014;39.006;2023-01-15T00:24:28;23.13;;;8.52;;
61635;SDS011;59438;45.014;39.006;2023-01-15T00:26:55;22.83;;;8.90;;
61635;SDS011;59438;45.014;39.006;2023-01-15T00:29:21;18.88;;;8.73;;
61635;SDS011;59438;45.014;39.006;2023-01-15T00:31:52;18.90;;;8.90;;
61635;SDS011;59438;45.014;39.006;2023-01-15T00:34:20;19.73;;;8.85;;
61635;SDS011;59438;45.014;39.006;2023-01-15T00:36:48;20.15;;;8.38;;
61635;SDS011;59438;45.014;39.006;2023-01-15T00:39:15;26.90;;;9.15;;
61635;SDS011;59438;45.014;39.006;2023-01-15T00:41:41;18.35;;;8.93;;
61635;SDS011;59438;45.014;39.006;2023-01-15T00:44:07;16.75;;;8.50;;
61635;SDS011;59438;45.014;39.006;2023-01-15T00:46:34;17.38;;;8.52;;
61635;SDS011;59438;45.014;39.006;2023-01-15T00:49:00;28.70;;;9.45;;
61635;SDS011;59438;45.014;39.006;2023-01-15T00:51:27;22.73;;;9.30;;
61635;SDS011;59438;45.014;39.006;2023-01-15T00:53:54;21.25;;;8.68;;
61635;SDS011;59438;45.014;39.006;2023-01-15T00:56:21;22.63;;;9.57;;
61635;SDS011;59438;45.014;39.006;2023-01-15T00:58:47;22.48;;;9.27;;
61635;SDS011;59438;45.014;39.006;2023-01-15T01:01:13;18.60;;;9.18;;
61635;SDS011;59438;45.014;39.006;2023-01-15T01:03:40;29.23;;;10.00;;
61635;SDS011;59438;45.014;39.006;2023-01-15T01:06:07;25.40;;;9.65;;
61635;SDS011;59438;45.014;39.006;2023-01-15T01:08:33;24.60;;;9.35;;
61635;SDS011;59438;45.014;39.006;2023-01-15T01:11:02;18.67;;;9.27;;
61635;SDS011;59438;45.014;39.006;2023-01-15T01:13:29;23.38;;;9.90;;
61635;SDS011;59438;45.014;39.006;2023-01-15T01:15:56;19.35;;;9.15;;
61635;SDS011;59438;45.014;39.006;2023-01-15T01:18:22;28.40;;;10.10;;
61635;SDS011;59438;45.014;39.006;2023-01-15T01:20:48;25.10;;;9.55;;
61635;SDS011;59438;45.014;39.006;2023-01-15T01:23:15;22.08;;;9.30;;
61635;SDS011;59438;45.014;39.006;2023-01-15T01:25:41;18.92;;;9.13;;
61635;SDS011;59438;45.014;39.006;2023-01-15T01:28:09;19.10;;;8.90;;
61635;SDS011;59438;45.014;39.006;2023-01-15T01:30:36;18.80;;;9.27;;
61635;SDS011;59438;45.014;39.006;2023-01-15T01:33:03;26.08;;;9.02;;
61635;SDS011;59438;45.014;39.006;2023-01-15T01:35:29;19.30;;;9.43;;
61635;SDS011;59438;45.014;39.006;2023-01-15T01:37:55;26.23;;;9.88;;
61635;SDS011;59438;45.014;39.006;2023-01-15T01:40:22;19.15;;;8.68;;
61635;SDS011;59438;45.014;39.006;2023-01-15T01:42:48;24.88;;;9.35;;
61635;SDS011;59438;45.014;39.006;2023-01-15T01:45:20;22.42;;;9.73;;
61635;SDS011;59438;45.014;39.006;2023-01-15T01:47:50;22.58;;;9.52;;
61635;SDS011;59438;45.014;39.006;2023-01-15T01:50:17;20.38;;;8.93;;
61635;SDS011;59438;45.014;39.006;2023-01-15T01:52:44;19.10;;;9.05;;
61635;SDS011;59438;45.014;39.006;2023-01-15T01:55:14;22.70;;;8.07;;
61635;SDS011;59438;45.014;39.006;2023-01-15T01:57:43;21.35;;;9.88;;
61635;SDS011;59438;45.014;39.006;2023-01-15T02:00:12;20.80;;;9.52;;
61635;SDS011;59438;45.014;39.006;2023-01-15T02:02:40;20.98;;;9.32;;
61635;SDS011;59438;45.014;39.006;2023-01-15T02:05:08;20.38;;;9.38;;
61635;SDS011;59438;45.014;39.006;2023-01-15T02:07:38;19.70;;;8.83;;
61635;SDS011;59438;45.014;39.006;2023-01-15T02:10:05;18.08;;;9.13;;
61635;SDS011;59438;45.014;39.006;2023-01-15T02:12:37;23.13;;;9.38;;
61635;SDS011;59438;45.014;39.006;2023-01-15T02:15:06;24.13;;;9.38;;
61635;SDS011;59438;45.014;39.006;2023-01-15T02:17:39;19.33;;;8.80;;
61635;SDS011;59438;45.014;39.006;2023-01-15T02:20:21;17.02;;;8.40;;
61635;SDS011;59438;45.014;39.006;2023-01-15T02:22:57;20.87;;;8.50;;
61635;SDS011;59438;45.014;39.006;2023-01-15T02:25:35;19.17;;;8.93;;
61635;SDS011;59438;45.014;39.006;2023-01-15T02:28:17;21.60;;;8.93;;
61635;SDS011;59438;45.014;39.006;2023-01-15T02:30:50;20.50;;;8.00;;
61635;SDS011;59438;45.014;39.006;2023-01-15T02:33:22;17.17;;;8.68;;
61635;SDS011;59438;45.014;39.006;2023-01-15T02:35:56;16.45;;;8.15;;
61635;SDS011;59438;45.014;39.006;2023-01-15T02:38:24;22.40;;;8.77;;
61635;SDS011;59438;45.014;39.006;2023-01-15T02:40:56;19.20;;;9.27;;
61635;SDS011;59438;45.014;39.006;2023-01-15T02:43:31;23.63;;;9.20;;
61635;SDS011;59438;45.014;39.006;2023-01-15T02:46:01;21.10;;;8.82;;
61635;SDS011;59438;45.014;39.006;2023-01-15T02:48:31;15.35;;;8.43;;
61635;SDS011;59438;45.014;39.006;2023-01-15T02:51:01;22.70;;;9.38;;
61635;SDS011;59438;45.014;39.006;2023-01-15T02:53:32;21.05;;;8.73;;
61635;SDS011;59438;45.014;39.006;2023-01-15T02:56:01;19.42;;;9.18;;
61635;SDS011;59438;45.014;39.006;2023-01-15T02:58:34;15.05;;;8.23;;
61635;SDS011;59438;45.014;39.006;2023-01-15T03:01:05;16.75;;;8.15;;
61635;SDS011;59438;45.014;39.006;2023-01-15T03:03:37;17.00;;;8.27;;
61635;SDS011;59438;45.014;39.006;2023-01-15T03:06:10;21.38;;;7.80;;
61635;SDS011;59438;45.014;39.006;2023-01-15T03:08:43;22.00;;;9.15;;
61635;SDS011;59438;45.014;39.006;2023-01-15T03:11:10;20.80;;;8.55;;
61635;SDS011;59438;45.014;39.006;2023-01-15T03:13:42;17.10;;;7.95;;
61635;SDS011;59438;45.014;39.006;2023-01-15T03:16:13;22.23;;;8.85;;
61635;SDS011;59438;45.014;39.006;2023-01-15T03:18:46;17.40;;;8.20;;
61635;SDS011;59438;45.014;39.006;2023-01-15T03:21:18;19.85;;;7.80;;
61635;SDS011;59438;45.014;39.006;2023-01-15T03:23:51;19.35;;;8.40;;
61635;SDS011;59438;45.014;39.006;2023-01-15T03:26:20;20.45;;;9.10;;
61635;SDS011;59438;45.014;39.006;2023-01-15T03:28:47;17.80;;;8.38;;
61635;SDS011;59438;45.014;39.006;2023-01-15T03:31:15;19.70;;;8.43;;
61635;SDS011;59438;45.014;39.006;2023-01-15T03:33:41;20.65;;;8.50;;
61635;SDS011;59438;45.014;39.006;2023-01-15T03:36:09;17.27;;;7.65;;
61635;SDS011;59438;45.014;39.006;2023-01-15T03:38:36;17.30;;;7.13;;
61635;SDS011;59438;45.014;39.006;2023-01-15T03:41:07;16.15;;;7.32;;
61635;SDS011;59438;45.014;39.006;2023-01-15T03:43:45;19.70;;;7.47;;
61635;SDS011;59438;45.014;39.006;2023-01-15T03:46:36;17.70;;;7.38;;
61635;SDS011;59438;45.014;39.006;2023-01-15T03:49:12;16.83;;;7.43;;
61635;SDS011;59438;45.014;39.006;2023-01-15T03:51:48;16.38;;;7.13;;
61635;SDS011;59438;45.014;39.006;2023-01-15T03:54:22;19.23;;;7.55;;
61635;SDS011;59438;45.014;39.006;2023-01-15T03:56:57;13.63;;;7.22;;
61635;SDS011;59438;45.014;39.006;2023-01-15T03:59:31;17.80;;;8.15;;
61635;SDS011;59438;45.014;39.006;2023-01-15T04:02:00;17.77;;;8.30;;
61635;SDS011;59438;45.014;39.006;2023-01-15T04:04:27;17.38;;;7.60;;
61635;SDS011;59438;45.014;39.006;2023-01-15T04:06:54;16.73;;;7.55;;
61635;SDS011;59438;45.014;39.006;2023-01-15T04:09:21;16.77;;;7.15;;
61635;SDS011;59438;45.014;39.006;2023-01-15T04:11:49;15.00;;;7.20;;
61635;SDS011;59438;45.014;39.006;2023-01-15T04:14:15;19.00;;;6.85;;
61635;SDS011;59438;45.014;39.006;2023-01-15T04:16:43;21.75;;;7.07;;
61635;SDS011;59438;45.014;39.006;2023-01-15T04:19:09;16.90;;;7.72;;
61635;SDS011;59438;45.014;39.006;2023-01-15T04:21:36;14.20;;;7.13;;
61635;SDS011;59438;45.014;39.006;2023-01-15T04:24:02;16.00;;;7.32;;
61635;SDS011;59438;45.014;39.006;2023-01-15T04:26:29;15.85;;;7.15;;
61635;SDS011;59438;45.014;39.006;2023-01-15T04:28:55;15.50;;;8.18;;
61635;SDS011;59438;45.014;39.006;2023-01-15T04:31:21;23.02;;;8.68;;
61635;SDS011;59438;45.014;39.006;2023-01-15T04:33:49;21.30;;;8.88;;
61635;SDS011;59438;45.014;39.006;2023-01-15T04:36:15;16.48;;;7.80;;
61635;SDS011;59438;45.014;39.006;2023-01-15T04:38:42;13.38;;;7.38;;
61635;SDS011;59438;45.014;39.006;2023-01-15T04:41:08;16.40;;;8.10;;
61635;SDS011;59438;45.014;39.006;2023-01-15T04:43:35;15.23;;;7.68;;
61635;SDS011;59438;45.014;39.006;2023-01-15T04:46:01;18.90;;;7.85;;
61635;SDS011;59438;45.014;39.006;2023-01-15T04:48:28;15.93;;;7.60;;
61635;SDS011;59438;45.014;39.006;2023-01-15T04:50:55;16.13;;;7.50;;
61635;SDS011;59438;45.014;39.006;2023-01-15T04:53:22;18.83;;;8.13;;
61635;SDS011;59438;45.014;39.006;2023-01-15T04:55:50;15.05;;;7.00;;
61635;SDS011;59438;45.014;39.006;2023-01-15T04:58:16;16.02;;;7.35;;
61635;SDS011;59438;45.014;39.006;2023-01-15T05:00:43;17.80;;;8.07;;
61635;SDS011;59438;45.014;39.006;2023-01-15T05:03:10;12.95;;;7.30;;
61635;SDS011;59438;45.014;39.006;2023-01-15T05:05:37;21.38;;;8.27;;
61635;SDS011;59438;45.014;39.006;2023-01-15T05:08:05;18.08;;;8.45;;
61635;SDS011;59438;45.014;39.006;2023-01-15T05:10:31;20.15;;;8.15;;
61635;SDS011;59438;45.014;39.006;2023-01-15T05:12:57;18.90;;;8.70;;
61635;SDS011;59438;45.014;39.006;2023-01-15T05:15:24;19.58;;;9.23;;
61635;SDS011;59438;45.014;39.006;2023-01-15T05:17:50;16.75;;;8.45;;
61635;SDS011;59438;45.014;39.006;2023-01-15T05:20:17;19.27;;;8.88;;
61635;SDS011;59438;45.014;39.006;2023-01-15T05:22:43;18.95;;;10.10;;
61635;SDS011;59438;45.014;39.006;2023-01-15T05:25:11;20.52;;;9.73;;
61635;SDS011;59438;45.014;39.006;2023-01-15T05:27:37;20.73;;;9.70;;
61635;SDS011;59438;45.014;39.006;2023-01-15T05:30:04;21.10;;;9.48;;
61635;SDS011;59438;45.014;39.006;2023-01-15T05:32:31;20.48;;;9.95;;
61635;SDS011;59438;45.014;39.006;2023-01-15T05:34:58;25.83;;;10.05;;
61635;SDS011;59438;45.014;39.006;2023-01-15T05:37:24;22.60;;;10.45;;
61635;SDS011;59438;45.014;39.006;2023-01-15T05:39:50;22.85;;;10.02;;
61635;SDS011;59438;45.014;39.006;2023-01-15T05:42:18;22.38;;;9.35;;
61635;SDS011;59438;45.014;39.006;2023-01-15T05:44:44;26.20;;;10.07;;
61635;SDS011;59438;45.014;39.006;2023-01-15T05:47:11;23.35;;;10.63;;
61635;SDS011;59438;45.014;39.006;2023-01-15T05:49:37;25.55;;;10.77;;
61635;SDS011;59438;45.014;39.006;2023-01-15T05:52:03;20.05;;;10.50;;
61635;SDS011;59438;45.014;39.006;2023-01-15T05:54:31;22.25;;;10.93;;
61635;SDS011;59438;45.014;39.006;2023-01-15T05:56:58;23.70;;;10.15;;
61635;SDS011;59438;45.014;39.006;2023-01-15T05:59:27;25.95;;;11.38;;
61635;SDS011;59438;45.014;39.006;2023-01-15T06:01:55;25.02;;;11.27;;
61635;SDS011;59438;45.014;39.006;2023-01-15T06:04:21;23.48;;;10.88;;
61635;SDS011;59438;45.014;39.006;2023-01-15T06:06:49;23.10;;;11.50;;
61635;SDS011;59438;45.014;39.006;2023-01-15T06:09:16;27.33;;;12.52;;
61635;SDS011;59438;45.014;39.006;2023-01-15T06:11:43;25.70;;;12.70;;
61635;SDS011;59438;45.014;39.006;2023-01-15T06:14:10;27.17;;;12.38;;
61635;SDS011;59438;45.014;39.006;2023-01-15T06:16:38;20.98;;;10.77;;
61635;SDS011;59438;45.014;39.006;2023-01-15T06:19:05;24.65;;;11.52;;
61635;SDS011;59438;45.014;39.006;2023-01-15T06:21:33;28.52;;;12.20;;
61635;SDS011;59438;45.014;39.006;2023-01-15T06:24:00;23.55;;;12.00;;
61635;SDS011;59438;45.014;39.006;2023-01-15T06:26:26;25.75;;;11.43;;
61635;SDS011;59438;45.014;39.006;2023-01-15T06:28:52;28.10;;;12.88;;
61635;SDS011;59438;45.014;39.006;2023-01-15T06:31:19;26.65;;;12.60;;
61635;SDS011;59438;45.014;39.006;2023-01-15T06:33:48;22.45;;;11.65;;
61635;SDS011;59438;45.014;39.006;2023-01-15T06:36:15;26.23;;;12.88;;
61635;SDS011;59438;45.014;39.006;2023-01-15T06:38:43;26.80;;;12.13;;
61635;SDS011;59438;45.014;39.006;2023-01-15T06:41:11;28.50;;;12.52;;
61635;SDS011;59438;45.014;39.006;2023-01-15T06:43:38;27.67;;;12.40;;
61635;SDS011;59438;45.014;39.006;2023-01-15T06:46:06;23.50;;;11.70;;
61635;SDS011;59438;45.014;39.006;2023-01-15T06:48:33;26.70;;;12.20;;
61635;SDS011;59438;45.014;39.006;2023-01-15T06:51:01;31.42;;;14.20;;
61635;SDS011;59438;45.014;39.006;2023-01-15T06:53:28;29.23;;;13.27;;
61635;SDS011;59438;45.014;39.006;2023-01-15T06:55:54;30.90;;;13.18;;
61635;SDS011;59438;45.014;39.006;2023-01-15T06:58:20;28.27;;;12.85;;
61635;SDS011;59438;45.014;39.006;2023-01-15T07:00:47;37.75;;;15.65;;
61635;SDS011;59438;45.014;39.006;2023-01-15T07:03:13;33.58;;;13.95;;
61635;SDS011;59438;45.014;39.006;2023-01-15T07:05:39;34.40;;;15.25;;
61635;SDS011;59438;45.014;39.006;2023-01-15T07:08:07;29.92;;;13.73;;
61635;SDS011;59438;45.014;39.006;2023-01-15T07:10:34;33.03;;;14.63;;
61635;SDS011;59438;45.014;39.006;2023-01-15T07:13:00;33.53;;;15.38;;
61635;SDS011;59438;45.014;39.006;2023-01-15T07:15:26;33.83;;;15.05;;
61635;SDS011;59438;45.014;39.006;2023-01-15T07:17:53;31.52;;;15.02;;
61635;SDS011;59438;45.014;39.006;2023-01-15T07:20:19;36.38;;;15.98;;
61635;SDS011;59438;45.014;39.006;2023-01-15T07:22:47;48.28;;;19.10;;
61635;SDS011;59438;45.014;39.006;2023-01-15T07:25:15;32.95;;;16.30;;
61635;SDS011;59438;45.014;39.006;2023-01-15T07:27:41;37.92;;;16.05;;
61635;SDS011;59438;45.014;39.006;2023-01-15T07:30:08;40.17;;;17.05;;
61635;SDS011;59438;45.014;39.006;2023-01-15T07:32:36;40.15;;;18.85;;
61635;SDS011;59438;45.014;39.006;2023-01-15T07:35:02;44.97;;;19.25;;
61635;SDS011;59438;45.014;39.006;2023-01-15T07:37:29;43.90;;;18.63;;
61635;SDS011;59438;45.014;39.006;2023-01-15T07:39:55;35.88;;;17.65;;
61635;SDS011;59438;45.014;39.006;2023-01-15T07:42:23;41.45;;;18.63;;
61635;SDS011;59438;45.014;39.006;2023-01-15T07:44:49;38.83;;;16.40;;
61635;SDS011;59438;45.014;39.006;2023-01-15T07:47:16;38.38;;;18.08;;
61635;SDS011;59438;45.014;39.006;2023-01-15T07:49:44;34.83;;;16.48;;
61635;SDS011;59438;45.014;39.006;2023-01-15T07:52:11;40.42;;;16.83;;
61635;SDS011;59438;45.014;39.006;2023-01-15T07:54:37;34.28;;;17.67;;
61635;SDS011;59438;45.014;39.006;2023-01-15T07:57:04;47.75;;;19.55;;
61635;SDS011;59438;45.014;39.006;2023-01-15T07:59:32;48.60;;;21.90;;
61635;SDS011;59438;45.014;39.006;2023-01-15T08:01:59;52.15;;;21.33;;
61635;SDS011;59438;45.014;39.006;2023-01-15T08:04:25;47.20;;;22.35;;
61635;SDS011;59438;45.014;39.006;2023-01-15T08:06:51;44.90;;;19.25;;
61635;SDS011;59438;45.014;39.006;2023-01-15T08:09:18;46.05;;;21.85;;
61635;SDS011;59438;45.014;39.006;2023-01-15T08:11:44;50.67;;;20.95;;
61635;SDS011;59438;45.014;39.006;2023-01-15T08:14:10;42.83;;;17.40;;
61635;SDS011;59438;45.014;39.006;2023-01-15T08:16:38;34.40;;;16.52;;
61635;SDS011;59438;45.014;39.006;2023-01-15T08:19:04;41.90;;;17.40;;
61635;SDS011;59438;45.014;39.006;2023-01-15T08:21:31;37.72;;;16.38;;
61635;SDS011;59438;45.014;39.006;2023-01-15T08:23:57;35.88;;;15.88;;
61635;SDS011;59438;45.014;39.006;2023-01-15T08:26:23;42.08;;;16.15;;
61635;SDS011;59438;45.014;39.006;2023-01-15T08:28:50;37.65;;;16.23;;
61635;SDS011;59438;45.014;39.006;2023-01-15T08:31:17;34.30;;;14.85;;
61635;SDS011;59438;45.014;39.006;2023-01-15T08:33:45;37.38;;;16.35;;
61635;SDS011;59438;45.014;39.006;2023-01-15T08:36:11;38.10;;;15.57;;
61635;SDS011;59438;45.014;39.006;2023-01-15T08:38:37;41.05;;;15.95;;
61635;SDS011;59438;45.014;39.006;2023-01-15T08:41:04;38.20;;;14.27;;
61635;SDS011;59438;45.014;39.006;2023-01-15T08:43:31;40.95;;;16.50;;
61635;SDS011;59438;45.014;39.006;2023-01-15T08:45:57;42.38;;;15.27;;
61635;SDS011;59438;45.014;39.006;2023-01-15T08:48:26;31.95;;;14.25;;
61635;SDS011;59438;45.014;39.006;2023-01-15T08:50:54;39.70;;;15.95;;
61635;SDS011;59438;45.014;39.006;2023-01-15T08:53:21;31.70;;;14.13;;
61635;SDS011;59438;45.014;39.006;2023-01-15T08:55:47;37.63;;;14.32;;
61635;SDS011;59438;45.014;39.006;2023-01-15T08:58:14;36.17;;;14.63;;
61635;SDS011;59438;45.014;39.006;2023-01-15T09:00:41;41.78;;;15.32;;
61635;SDS011;59438;45.014;39.006;2023-01-15T09:03:08;39.60;;;16.52;;
61635;SDS011;59438;45.014;39.006;2023-01-15T09:05:35;43.03;;;14.77;;
61635;SDS011;59438;45.014;39.006;2023-01-15T09:08:04;39.50;;;14.23;;
61635;SDS011;59438;45.014;39.006;2023-01-15T09:10:31;37.92;;;14.98;;
61635;SDS011;59438;45.014;39.006;2023-01-15T09:12:58;41.40;;;15.63;;
61635;SDS011;59438;45.014;39.006;2023-01-15T09:15:25;45.35;;;17.27;;
61635;SDS011;59438;45.014;39.006;2023-01-15T09:17:52;45.17;;;17.02;;
61635;SDS011;59438;45.014;39.006;2023-01-15T09:20:18;43.67;;;16.40;;
61635;SDS011;59438;45.014;39.006;2023-01-15T09:22:45;44.80;;;15.90;;
61635;SDS011;59438;45.014;39.006;2023-01-15T09:25:12;37.88;;;15.43;;
61635;SDS011;59438;45.014;39.006;2023-01-15T09:27:39;36.38;;;15.70;;
61635;SDS011;59438;45.014;39.006;2023-01-15T09:30:06;40.55;;;16.15;;
61635;SDS011;59438;45.014;39.006;2023-01-15T09:32:33;40.75;;;16.80;;
61635;SDS011;59438;45.014;39.006;2023-01-15T09:34:59;51.20;;;17.88;;
61635;SDS011;59438;45.014;39.006;2023-01-15T09:37:26;40.95;;;16.10;;
61635;SDS011;59438;45.014;39.006;2023-01-15T09:39:52;38.88;;;16.30;;
61635;SDS011;59438;45.014;39.006;2023-01-15T09:42:30;39.15;;;15.20;;
61635;SDS011;59438;45.014;39.006;2023-01-15T09:45:09;49.80;;;16.13;;
61635;SDS011;59438;45.014;39.006;2023-01-15T09:47:43;49.58;;;15.65;;
61635;SDS011;59438;45.014;39.006;2023-01-15T09:50:21;37.58;;;16.00;;
61635;SDS011;59438;45.014;39.006;2023-01-15T09:53:07;42.53;;;16.02;;
61635;SDS011;59438;45.014;39.006;2023-01-15T09:55:43;39.92;;;15.68;;
61635;SDS011;59438;45.014;39.006;2023-01-15T09:58:13;37.55;;;16.52;;
61635;SDS011;59438;45.014;39.006;2023-01-15T10:00:43;41.90;;;15.95;;
61635;SDS011;59438;45.014;39.006;2023-01-15T10:03:15;43.00;;;16.35;;
61635;SDS011;59438;45.014;39.006;2023-01-15T10:05:52;47.70;;;16.50;;
61635;SDS011;59438;45.014;39.006;2023-01-15T10:08:24;40.75;;;17.30;;
61635;SDS011;59438;45.014;39.006;2023-01-15T10:10:54;38.08;;;15.85;;
61635;SDS011;59438;45.014;39.006;2023-01-15T10:13:27;37.10;;;15.50;;
61635;SDS011;59438;45.014;39.006;2023-01-15T10:15:56;37.78;;;15.75;;
61635;SDS011;59438;45.014;39.006;2023-01-15T10:18:23;30.92;;;15.25;;
61635;SDS011;59438;45.014;39.006;2023-01-15T10:20:59;37.25;;;15.80;;
61635;SDS011;59438;45.014;39.006;2023-01-15T10:23:35;38.25;;;15.00;;
61635;SDS011;59438;45.014;39.006;2023-01-15T10:26:12;36.03;;;15.88;;
61635;SDS011;59438;45.014;39.006;2023-01-15T10:28:45;43.17;;;15.90;;
61635;SDS011;59438;45.014;39.006;2023-01-15T10:31:30;50.28;;;19.05;;
61635;SDS011;59438;45.014;39.006;2023-01-15T10:34:13;44.03;;;17.25;;
61635;SDS011;59438;45.014;39.006;2023-01-15T10:36:54;42.45;;;17.75;;
61635;SDS011;59438;45.014;39.006;2023-01-15T10:39:26;43.40;;;16.35;;
61635;SDS011;59438;45.014;39.006;2023-01-15T10:41:59;43.17;;;17.73;;
61635;SDS011;59438;45.014;39.006;2023-01-15T10:44:39;48.35;;;16.67;;
61635;SDS011;59438;45.014;39.006;2023-01-15T10:47:13;43.58;;;17.90;;
61635;SDS011;59438;45.014;39.006;2023-01-15T10:49:43;40.03;;;17.30;;
61635;SDS011;59438;45.014;39.006;2023-01-15T10:52:14;41.35;;;17.83;;
61635;SDS011;59438;45.014;39.006;2023-01-15T10:54:49;36.78;;;16.98;;
61635;SDS011;59438;45.014;39.006;2023-01-15T10:57:20;35.83;;;16.30;;
61635;SDS011;59438;45.014;39.006;2023-01-15T10:59:56;50.30;;;17.65;;
61635;SDS011;59438;45.014;39.006;2023-01-15T11:02:26;44.03;;;17.08;;
61635;SDS011;59438;45.014;39.006;2023-01-15T11:04:56;38.58;;;17.33;;
61635;SDS011;59438;45.014;39.006;2023-01-15T11:07:23;43.67;;;17.42;;
61635;SDS011;59438;45.014;39.006;2023-01-15T11:09:59;40.85;;;17.38;;
61635;SDS011;59438;45.014;39.006;2023-01-15T11:12:30;43.85;;;17.05;;
61635;SDS011;59438;45.014;39.006;2023-01-15T11:14:58;40.38;;;16.73;;
61635;SDS011;59438;45.014;39.006;2023-01-15T11:17:25;36.45;;;16.83;;
61635;SDS011;59438;45.014;39.006;2023-01-15T11:19:55;33.25;;;15.88;;
61635;SDS011;59438;45.014;39.006;2023-01-15T11:22:21;35.58;;;16.02;;
61635;SDS011;59438;45.014;39.006;2023-01-15T11:24:49;37.58;;;16.02;;
61635;SDS011;59438;45.014;39.006;2023-01-15T11:27:19;36.47;;;16.58;;
61635;SDS011;59438;45.014;39.006;2023-01-15T11:29:52;42.70;;;16.98;;
61635;SDS011;59438;45.014;39.006;2023-01-15T11:32:22;37.83;;;16.40;;
61635;SDS011;59438;45.014;39.006;2023-01-15T11:34:53;39.05;;;16.92;;
61635;SDS011;59438;45.014;39.006;2023-01-15T11:37:20;42.33;;;18.40;;
61635;SDS011;59438;45.014;39.006;2023-01-15T11:39:53;40.35;;;16.77;;
61635;SDS011;59438;45.014;39.006;2023-01-15T11:42:20;39.55;;;16.95;;
61635;SDS011;59438;45.014;39.006;2023-01-15T11:44:50;35.95;;;16.13;;
61635;SDS011;59438;45.014;39.006;2023-01-15T11:47:17;36.50;;;15.85;;
61635;SDS011;59438;45.014;39.006;2023-01-15T11:49:50;36.15;;;15.25;;
61635;SDS011;59438;45.014;39.006;2023-01-15T11:52:17;36.25;;;16.58;;
61635;SDS011;59438;45.014;39.006;2023-01-15T11:54:48;29.13;;;14.35;;
61635;SDS011;59438;45.014;39.006;2023-01-15T11:57:25;34.35;;;15.05;;
61635;SDS011;59438;45.014;39.006;2023-01-15T11:59:53;38.03;;;15.18;;
61635;SDS011;59438;45.014;39.006;2023-01-15T12:02:21;39.72;;;15.15;;
61635;SDS011;59438;45.014;39.006;2023-01-15T12:04:58;32.42;;;15.35;;
61635;SDS011;59438;45.014;39.006;2023-01-15T12:07:26;38.22;;;15.85;;
61635;SDS011;59438;45.014;39.006;2023-01-15T12:10:00;40.88;;;15.77;;
61635;SDS011;59438;45.014;39.006;2023-01-15T12:12:37;39.13;;;15.23;;
61635;SDS011;59438;45.014;39.006;2023-01-15T12:15:18;32.65;;;15.23;;
61635;SDS011;59438;45.014;39.006;2023-01-15T12:18:01;36.08;;;15.18;;
61635;SDS011;59438;45.014;39.006;2023-01-15T12:20:44;38.63;;;15.35;;
61635;SDS011;59438;45.014;39.006;2023-01-15T12:23:26;34.25;;;15.20;;
61635;SDS011;59438;45.014;39.006;2023-01-15T12:26:07;33.38;;;14.23;;
61635;SDS011;59438;45.014;39.006;2023-01-15T12:28:44;35.72;;;13.32;;
61635;SDS011;59438;45.014;39.006;2023-01-15T12:31:18;36.95;;;14.15;;
61635;SDS011;59438;45.014;39.006;2023-01-15T12:33:50;35.90;;;15.60;;
61635;SDS011;59438;45.014;39.006;2023-01-15T12:36:20;30.25;;;14.02;;
61635;SDS011;59438;45.014;39.006;2023-01-15T12:38:53;34.28;;;14.23;;
61635;SDS011;59438;45.014;39.006;2023-01-15T12:41:25;33.13;;;13.95;;
61635;SDS011;59438;45.014;39.006;2023-01-15T12:43:55;35.60;;;14.95;;
61635;SDS011;59438;45.014;39.006;2023-01-15T12:46:24;31.13;;;13.15;;
61635;SDS011;59438;45.014;39.006;2023-01-15T12:48:54;35.45;;;13.32;;
61635;SDS011;59438;45.014;39.006;2023-01-15T12:51:30;31.17;;;12.73;;
61635;SDS011;59438;45.014;39.006;2023-01-15T12:54:02;31.77;;;13.75;;
61635;SDS011;59438;45.014;39.006;2023-01-15T12:56:35;33.75;;;13.95;;
61635;SDS011;59438;45.014;39.006;2023-01-15T12:59:13;35.50;;;13.98;;
61635;SDS011;59438;45.014;39.006;2023-01-15T13:01:49;34.28;;;13.90;;
61635;SDS011;59438;45.014;39.006;2023-01-15T13:04:22;40.42;;;15.20;;
61635;SDS011;59438;45.014;39.006;2023-01-15T13:06:57;33.00;;;15.75;;
61635;SDS011;59438;45.014;39.006;2023-01-15T13:09:32;43.92;;;17.75;;
61635;SDS011;59438;45.014;39.006;2023-01-15T13:12:06;42.50;;;17.02;;
61635;SDS011;59438;45.014;39.006;2023-01-15T13:14:36;42.28;;;17.23;;
61635;SDS011;59438;45.014;39.006;2023-01-15T13:17:04;40.38;;;17.45;;
61635;SDS011;59438;45.014;39.006;2023-01-15T13:19:41;39.08;;;17.58;;
61635;SDS011;59438;45.014;39.006;2023-01-15T13:22:17;37.75;;;17.48;;
61635;SDS011;59438;45.014;39.006;2023-01-15T13:24:54;43.30;;;17.10;;
61635;SDS011;59438;45.014;39.006;2023-01-15T13:27:41;44.47;;;17.40;;
61635;SDS011;59438;45.014;39.006;2023-01-15T13:30:20;41.95;;;18.02;;
61635;SDS011;59438;45.014;39.006;2023-01-15T13:32:58;51.55;;;21.20;;
61635;SDS011;59438;45.014;39.006;2023-01-15T13:35:39;44.95;;;23.92;;
61635;SDS011;59438;45.014;39.006;2023-01-15T13:38:13;40.90;;;19.83;;
61635;SDS011;59438;45.014;39.006;2023-01-15T13:40:43;43.35;;;20.05;;
61635;SDS011;59438;45.014;39.006;2023-01-15T13:43:19;58.28;;;22.27;;
61635;SDS011;59438;45.014;39.006;2023-01-15T13:45:58;37.75;;;18.73;;
61635;SDS011;59438;45.014;39.006;2023-01-15T13:48:28;54.25;;;19.38;;
61635;SDS011;59438;45.014;39.006;2023-01-15T13:50:58;46.03;;;19.13;;
61635;SDS011;59438;45.014;39.006;2023-01-15T13:53:28;50.15;;;18.63;;
61635;SDS011;59438;45.014;39.006;2023-01-15T13:58:25;38.65;;;17.40;;
61635;SDS011;59438;45.014;39.006;2023-01-15T14:01:00;50.15;;;22.92;;
61635;SDS011;59438;45.014;39.006;2023-01-15T14:03:31;54.88;;;24.13;;
61635;SDS011;59438;45.014;39.006;2023-01-15T14:06:00;48.28;;;22.90;;
61635;SDS011;59438;45.014;39.006;2023-01-15T14:08:36;57.58;;;24.27;;
61635;SDS011;59438;45.014;39.006;2023-01-15T14:11:04;50.53;;;23.52;;
61635;SDS011;59438;45.014;39.006;2023-01-15T14:13:52;52.92;;;24.02;;
61635;SDS011;59438;45.014;39.006;2023-01-15T14:16:44;50.65;;;25.17;;
61635;SDS011;59438;45.014;39.006;2023-01-15T14:19:25;61.33;;;25.05;;
61635;SDS011;59438;45.014;39.006;2023-01-15T14:22:06;57.50;;;26.35;;
61635;SDS011;59438;45.014;39.006;2023-01-15T14:24:48;64.93;;;28.80;;
61635;SDS011;59438;45.014;39.006;2023-01-15T14:27:42;76.55;;;36.70;;
61635;SDS011;59438;45.014;39.006;2023-01-15T14:30:24;73.97;;;36.58;;